createdAt,value
2022-11-03T00:01:48.733Z,21.80
2022-11-03T00:04:19.028Z,21.90
2022-11-03T00:06:47.811Z,21.90
2022-11-03T00:09:16.989Z,21.90
2022-11-03T00:11:45.651Z,21.90
2022-11-03T00:14:14.787Z,22.00
2022-11-03T00:16:42.394Z,22.00
2022-11-03T00:19:11.608Z,22.10
2022-11-03T00:21:39.105Z,22.10
2022-11-03T00:24:06.865Z,22.20
2022-11-03T00:26:36.142Z,22.20
2022-11-03T00:29:08.072Z,22.30
2022-11-03T00:31:37.464Z,22.40
2022-11-03T00:34:05.720Z,22.40
2022-11-03T00:36:40.777Z,22.50
2022-11-03T00:39:08.609Z,22.50
2022-11-03T00:41:38.327Z,22.50
2022-11-03T00:44:06.001Z,22.60
2022-11-03T00:46:36.343Z,22.70
2022-11-03T00:49:04.975Z,22.80
2022-11-03T00:51:34.694Z,22.80
2022-11-03T00:54:02.912Z,22.90
2022-11-03T00:56:31.963Z,22.90
2022-11-03T00:59:00.628Z,23.00
2022-11-03T01:01:31.671Z,23.00
2022-11-03T01:04:18.887Z,23.10
2022-11-03T01:06:51.506Z,23.20
2022-11-03T01:09:22.915Z,23.20
2022-11-03T01:11:58.565Z,23.30
2022-11-03T01:14:27.763Z,23.30
2022-11-03T01:16:56.786Z,23.30
2022-11-03T01:19:25.716Z,23.40
2022-11-03T01:21:54.414Z,23.40
2022-11-03T01:24:22.436Z,23.40
2022-11-03T01:26:50.259Z,23.40
2022-11-03T01:29:21.040Z,23.50
2022-11-03T01:31:49.240Z,23.50
2022-11-03T01:34:18.116Z,23.60
2022-11-03T01:36:49.253Z,23.60
2022-11-03T01:39:17.816Z,23.70
2022-11-03T01:41:46.589Z,23.80
2022-11-03T01:44:14.900Z,23.90
2022-11-03T01:46:48.898Z,23.90
2022-11-03T01:49:21.604Z,23.90
2022-11-03T01:51:52.857Z,24.00
2022-11-03T01:54:22.040Z,24.10
2022-11-03T01:56:52.522Z,24.10
2022-11-03T01:59:21.588Z,24.20
2022-11-03T02:01:49.701Z,24.30
2022-11-03T02:04:26.915Z,24.30
2022-11-03T02:06:59.051Z,24.30
2022-11-03T02:09:26.837Z,24.40
2022-11-03T02:12:06.854Z,24.50
2022-11-03T02:14:42.814Z,24.50
2022-11-03T02:17:13.300Z,24.60
2022-11-03T02:19:53.149Z,24.70
2022-11-03T02:22:38.951Z,24.80
2022-11-03T02:25:07.192Z,24.90
2022-11-03T02:27:35.216Z,25.00
2022-11-03T02:30:04.320Z,25.10
2022-11-03T02:32:59.203Z,25.10
2022-11-03T02:35:35.374Z,25.20
2022-11-03T02:38:04.103Z,25.20
2022-11-03T02:40:35.372Z,25.30
2022-11-03T02:43:04.700Z,25.40
2022-11-03T02:45:33.499Z,25.40
2022-11-03T02:48:02.917Z,25.50
2022-11-03T02:50:33.360Z,25.60
2022-11-03T02:53:01.363Z,25.60
2022-11-03T02:55:35.318Z,25.70
2022-11-03T02:58:05.771Z,25.80
2022-11-03T03:00:36.932Z,25.80
2022-11-03T03:03:09.103Z,25.90
2022-11-03T03:05:37.677Z,25.90
2022-11-03T03:08:09.897Z,25.90
2022-11-03T03:10:39.862Z,26.00
2022-11-03T03:13:08.497Z,26.10
2022-11-03T03:15:36.311Z,26.20
2022-11-03T03:18:24.094Z,26.20
2022-11-03T03:21:05.643Z,26.30
2022-11-03T03:23:36.962Z,26.40
2022-11-03T03:26:16.305Z,26.40
2022-11-03T03:28:52.564Z,26.50
2022-11-03T03:31:23.456Z,26.50
2022-11-03T03:33:59.734Z,26.60
2022-11-03T03:36:33.840Z,26.60
2022-11-03T03:39:04.263Z,26.60
2022-11-03T03:41:33.345Z,26.60
2022-11-03T03:44:06.685Z,26.60
2022-11-03T03:46:37.491Z,26.70
2022-11-03T03:49:06.262Z,26.70
2022-11-03T03:51:34.519Z,26.70
2022-11-03T03:54:02.090Z,26.80
2022-11-03T03:56:32.673Z,26.80
2022-11-03T03:59:01.085Z,26.90
2022-11-03T04:01:29.224Z,27.00
2022-11-03T04:03:57.672Z,27.10
2022-11-03T04:06:25.380Z,27.10
2022-11-03T04:08:53.776Z,27.20
2022-11-03T04:11:40.139Z,27.20
2022-11-03T04:14:27.388Z,27.30
2022-11-03T04:17:14.148Z,27.30
2022-11-03T04:20:00.009Z,27.40
2022-11-03T04:22:30.887Z,27.40
2022-11-03T04:24:59.995Z,27.50
2022-11-03T04:27:27.567Z,27.50
2022-11-03T04:30:10.736Z,27.60
2022-11-03T04:32:38.671Z,27.60
2022-11-03T04:35:18.741Z,27.70
2022-11-03T04:37:49.895Z,27.80
2022-11-03T04:42:59.446Z,27.90
2022-11-03T04:45:46.913Z,27.90
2022-11-03T04:48:18.632Z,27.90
2022-11-03T04:50:49.180Z,28.00
2022-11-03T04:53:18.236Z,28.10
2022-11-03T04:55:48.143Z,28.10
2022-11-03T04:58:27.103Z,28.00
2022-11-03T05:00:59.712Z,28.00
2022-11-03T05:03:31.726Z,28.00
2022-11-03T05:05:59.750Z,28.00
2022-11-03T05:08:30.314Z,28.00
2022-11-03T05:11:01.147Z,28.10
2022-11-03T05:13:29.398Z,28.10
2022-11-03T05:16:02.430Z,28.10
2022-11-03T05:21:43.544Z,28.10
2022-11-03T05:24:12.682Z,28.10
2022-11-03T05:26:40.346Z,28.10
2022-11-03T05:29:16.776Z,28.10
2022-11-03T05:31:46.021Z,28.10
2022-11-03T05:34:26.279Z,28.20
2022-11-03T05:36:53.952Z,28.20
2022-11-03T05:39:31.375Z,28.20
2022-11-03T05:42:00.071Z,28.30
2022-11-03T05:44:38.219Z,28.30
2022-11-03T05:47:25.920Z,28.30
2022-11-03T05:49:55.825Z,28.30
2022-11-03T05:52:25.083Z,28.30
2022-11-03T05:54:57.146Z,28.30
2022-11-03T05:57:26.196Z,28.40
2022-11-03T05:59:53.746Z,28.40
2022-11-03T06:02:27.352Z,28.40
2022-11-03T06:04:55.010Z,28.50
2022-11-03T06:07:27.496Z,28.50
2022-11-03T06:09:55.928Z,28.50
2022-11-03T06:12:26.090Z,28.60
2022-11-03T06:14:55.091Z,28.60
2022-11-03T06:17:24.134Z,28.60
2022-11-03T06:19:54.908Z,28.60
2022-11-03T06:22:29.045Z,28.70
2022-11-03T06:25:00.105Z,28.70
2022-11-03T06:27:31.272Z,28.70
2022-11-03T06:30:03.333Z,28.70
2022-11-03T06:32:34.703Z,28.80
2022-11-03T06:35:05.632Z,28.80
2022-11-03T06:37:34.084Z,28.80
2022-11-03T06:40:05.475Z,28.90
2022-11-03T06:42:36.123Z,28.90
2022-11-03T06:45:13.400Z,29.00
2022-11-03T06:47:41.133Z,29.10
2022-11-03T06:50:23.172Z,29.10
2022-11-03T06:52:51.058Z,29.10
2022-11-03T06:55:28.130Z,29.10
2022-11-03T06:57:58.840Z,29.10
2022-11-03T07:00:35.125Z,29.10
2022-11-03T07:03:13.195Z,29.10
2022-11-03T07:05:41.402Z,29.20
2022-11-03T07:08:19.745Z,29.20
2022-11-03T07:10:48.073Z,29.20
2022-11-03T07:13:23.144Z,29.20
2022-11-03T07:15:52.111Z,29.20
2022-11-03T07:18:32.711Z,29.30
2022-11-03T07:21:04.083Z,29.20
2022-11-03T07:23:32.589Z,29.20
2022-11-03T07:26:01.806Z,29.20
2022-11-03T07:28:36.294Z,29.20
2022-11-03T07:31:16.313Z,29.10
2022-11-03T07:33:44.396Z,29.10
2022-11-03T07:36:16.792Z,29.10
2022-11-03T07:38:47.770Z,29.10
2022-11-03T07:41:23.021Z,29.10
2022-11-03T07:43:56.468Z,29.10
2022-11-03T07:46:24.662Z,29.20
2022-11-03T07:48:52.402Z,29.20
2022-11-03T07:51:24.938Z,29.20
2022-11-03T07:54:03.526Z,29.20
2022-11-03T07:56:36.171Z,29.10
2022-11-03T07:59:11.992Z,29.10
2022-11-03T08:01:45.318Z,29.10
2022-11-03T08:04:26.399Z,29.10
2022-11-03T08:06:55.020Z,29.10
2022-11-03T08:09:23.205Z,29.10
2022-11-03T08:11:51.407Z,29.00
2022-11-03T08:14:19.414Z,29.00
2022-11-03T08:16:47.256Z,29.00
2022-11-03T08:19:15.494Z,29.00
2022-11-03T08:21:44.968Z,29.00
2022-11-03T08:24:14.023Z,29.00
2022-11-03T08:26:42.588Z,29.00
2022-11-03T08:29:10.582Z,29.00
2022-11-03T08:31:38.185Z,29.00
2022-11-03T08:34:08.524Z,29.00
2022-11-03T08:36:37.187Z,29.00
2022-11-03T08:39:05.861Z,29.00
2022-11-03T08:41:33.451Z,29.00
2022-11-03T08:44:01.327Z,29.00
2022-11-03T08:46:29.063Z,29.00
2022-11-03T08:48:56.820Z,29.00
2022-11-03T08:51:24.542Z,28.90
2022-11-03T08:53:54.374Z,28.90
2022-11-03T08:56:22.663Z,28.90
2022-11-03T08:58:50.666Z,28.90
2022-11-03T09:01:19.176Z,28.90
2022-11-03T09:03:46.926Z,28.90
2022-11-03T09:06:15.478Z,28.90
2022-11-03T09:11:31.027Z,28.90
2022-11-03T09:13:58.554Z,28.90
2022-11-03T09:16:29.743Z,28.80
2022-11-03T09:18:57.608Z,28.80
2022-11-03T09:21:25.611Z,28.80
2022-11-03T09:23:53.391Z,28.80
2022-11-03T09:26:25.165Z,28.80
2022-11-03T09:28:53.026Z,28.80
2022-11-03T09:31:20.710Z,28.70
2022-11-03T09:33:49.157Z,28.70
2022-11-03T09:36:17.468Z,28.60
2022-11-03T09:38:45.112Z,28.60
2022-11-03T09:41:26.626Z,28.60
2022-11-03T09:43:58.201Z,28.60
2022-11-03T09:46:26.390Z,28.50
2022-11-03T09:48:55.167Z,28.50
2022-11-03T09:51:25.164Z,28.40
2022-11-03T09:53:52.796Z,28.40
2022-11-03T09:56:24.498Z,28.40
2022-11-03T09:58:54.726Z,28.30
2022-11-03T10:01:23.300Z,28.30
2022-11-03T10:03:51.026Z,28.30
2022-11-03T10:06:20.093Z,28.20
2022-11-03T10:08:48.163Z,28.20
2022-11-03T10:11:15.963Z,28.20
2022-11-03T10:13:47.464Z,28.10
2022-11-03T10:16:17.679Z,28.10
2022-11-03T10:18:45.946Z,28.10
2022-11-03T10:21:21.267Z,28.00
2022-11-03T10:23:50.972Z,28.10
2022-11-03T10:26:19.947Z,28.00
2022-11-03T10:29:06.424Z,28.00
2022-11-03T10:31:38.815Z,28.00
2022-11-03T10:34:07.084Z,27.90
2022-11-03T10:36:34.955Z,27.90
2022-11-03T10:39:22.347Z,27.90
2022-11-03T10:41:57.532Z,27.80
2022-11-03T10:44:27.166Z,27.80
2022-11-03T10:46:59.817Z,27.70
2022-11-03T10:49:31.610Z,27.70
2022-11-03T10:52:14.833Z,27.60
2022-11-03T10:54:42.486Z,27.60
2022-11-03T10:57:10.609Z,27.50
2022-11-03T10:59:39.133Z,27.50
2022-11-03T11:02:15.282Z,27.50
2022-11-03T11:04:43.154Z,27.40
2022-11-03T11:07:27.007Z,27.40
2022-11-03T11:09:54.937Z,27.40
2022-11-03T11:12:24.007Z,27.30
2022-11-03T11:15:01.831Z,27.30
2022-11-03T11:17:38.311Z,27.30
2022-11-03T11:20:24.529Z,27.20
2022-11-03T11:22:52.406Z,27.20
2022-11-03T11:25:20.013Z,27.10
2022-11-03T11:27:47.584Z,27.10
2022-11-03T11:30:21.025Z,27.00
2022-11-03T11:33:00.163Z,27.00
2022-11-03T11:35:27.646Z,26.90
2022-11-03T11:37:55.300Z,26.80
2022-11-03T11:40:25.672Z,26.80
2022-11-03T11:43:14.266Z,26.80
2022-11-03T11:46:01.015Z,26.80
2022-11-03T11:48:28.631Z,26.70
2022-11-03T11:50:57.752Z,26.70
2022-11-03T11:53:31.509Z,26.60
2022-11-03T11:56:00.832Z,26.60
2022-11-03T11:58:34.520Z,26.50
2022-11-03T12:01:06.674Z,26.50
2022-11-03T12:03:39.726Z,26.40
2022-11-03T12:06:07.759Z,26.40
2022-11-03T12:08:35.699Z,26.30
2022-11-03T12:11:04.457Z,26.30
2022-11-03T12:14:02.540Z,26.30
2022-11-03T12:16:30.905Z,26.20
2022-11-03T12:19:18.204Z,26.20
2022-11-03T12:21:49.416Z,26.10
2022-11-03T12:24:32.529Z,26.10
2022-11-03T12:27:00.881Z,26.10
2022-11-03T12:29:28.480Z,26.10
2022-11-03T12:31:56.306Z,26.10
2022-11-03T12:34:23.854Z,26.00
2022-11-03T12:36:55.979Z,26.00
2022-11-03T12:39:23.956Z,25.90
2022-11-03T12:41:51.459Z,25.90
2022-11-03T12:44:19.501Z,25.90
2022-11-03T12:46:47.361Z,25.80
2022-11-03T12:49:14.854Z,25.80
2022-11-03T12:51:42.398Z,25.70
2022-11-03T12:54:10.812Z,25.70
2022-11-03T12:56:38.305Z,25.60
2022-11-03T12:59:05.992Z,25.60
2022-11-03T13:01:34.678Z,25.60
2022-11-03T13:04:02.294Z,25.50
2022-11-03T13:06:29.823Z,25.50
2022-11-03T13:08:57.464Z,25.50
2022-11-03T13:11:43.573Z,25.40
2022-11-03T13:14:12.605Z,25.40
2022-11-03T13:16:40.178Z,25.40
2022-11-03T13:19:10.522Z,25.40
2022-11-03T13:21:38.645Z,25.50
2022-11-03T13:24:06.400Z,25.40
2022-11-03T13:26:34.704Z,25.40
2022-11-03T13:29:06.183Z,25.40
2022-11-03T13:31:34.538Z,25.30
2022-11-03T13:34:02.106Z,25.10
2022-11-03T13:36:30.561Z,25.10
2022-11-03T13:38:58.141Z,25.00
2022-11-03T13:41:25.741Z,25.00
2022-11-03T13:43:53.294Z,24.90
2022-11-03T13:46:20.817Z,24.80
2022-11-03T13:51:36.818Z,24.70
2022-11-03T13:59:40.489Z,24.60
2022-11-03T14:04:55.729Z,24.50
2022-11-03T14:07:23.305Z,24.50
2022-11-03T14:09:51.119Z,24.50
2022-11-03T14:12:35.377Z,24.50
2022-11-03T14:15:08.162Z,24.40
2022-11-03T14:17:37.329Z,24.40
2022-11-03T14:20:05.461Z,24.30
2022-11-03T14:22:33.186Z,24.30
2022-11-03T14:25:01.571Z,24.30
2022-11-03T14:27:29.245Z,24.30
2022-11-03T14:29:56.885Z,24.30
2022-11-03T14:32:24.474Z,24.30
2022-11-03T14:34:52.833Z,24.20
2022-11-03T14:37:20.515Z,24.20
2022-11-03T14:39:48.060Z,24.20
2022-11-03T14:42:16.799Z,24.20
2022-11-03T14:44:46.687Z,24.20
2022-11-03T14:47:15.576Z,24.10
2022-11-03T14:49:43.801Z,24.10
2022-11-03T14:52:11.324Z,24.10
2022-11-03T14:54:38.891Z,24.10
2022-11-03T14:57:06.467Z,24.10
2022-11-03T14:59:34.368Z,24.10
2022-11-03T15:02:02.649Z,24.00
2022-11-03T15:04:30.292Z,24.00
2022-11-03T15:06:57.812Z,24.00
2022-11-03T15:09:26.217Z,24.00
2022-11-03T15:11:55.156Z,24.00
2022-11-03T15:14:23.904Z,23.90
2022-11-03T15:16:51.397Z,23.90
2022-11-03T15:19:20.033Z,23.90
2022-11-03T15:21:48.371Z,23.80
2022-11-03T15:27:05.057Z,23.80
2022-11-03T15:29:32.626Z,23.70
2022-11-03T15:32:00.108Z,23.80
2022-11-03T15:34:28.420Z,23.70
2022-11-03T15:36:57.201Z,23.70
2022-11-03T15:39:24.733Z,23.70
2022-11-03T15:41:52.230Z,23.70
2022-11-03T15:44:20.217Z,23.70
2022-11-03T15:46:48.602Z,23.70
2022-11-03T15:49:16.124Z,23.70
2022-11-03T15:51:43.584Z,23.70
2022-11-03T15:54:11.077Z,23.60
2022-11-03T15:56:38.911Z,23.60
2022-11-03T15:59:06.391Z,23.60
2022-11-03T16:01:34.533Z,23.50
2022-11-03T16:04:02.334Z,23.50
2022-11-03T16:06:53.877Z,23.40
2022-11-03T16:09:17.379Z,23.40
2022-11-03T16:11:44.927Z,23.40
2022-11-03T16:14:13.296Z,23.40
2022-11-03T16:16:41.888Z,23.40
2022-11-03T16:19:10.859Z,23.40
2022-11-03T16:21:38.370Z,23.40
2022-11-03T16:24:06.017Z,23.30
2022-11-03T16:26:36.089Z,23.30
2022-11-03T16:29:03.862Z,23.20
2022-11-03T16:31:32.017Z,23.20
2022-11-03T16:33:59.582Z,23.20
2022-11-03T16:36:27.172Z,23.20
2022-11-03T16:38:54.709Z,23.20
2022-11-03T16:41:23.935Z,23.20
2022-11-03T16:43:51.425Z,23.20
2022-11-03T16:46:19.895Z,23.20
2022-11-03T16:48:48.386Z,23.10
2022-11-03T16:51:16.832Z,23.00
2022-11-03T16:53:44.291Z,23.00
2022-11-03T16:56:11.793Z,23.00
2022-11-03T16:58:39.311Z,23.00
2022-11-03T17:01:08.005Z,23.00
2022-11-03T17:03:36.167Z,22.90
2022-11-03T17:06:03.688Z,22.90
2022-11-03T17:08:52.001Z,22.80
2022-11-03T17:11:36.189Z,22.80
2022-11-03T17:14:04.889Z,22.80
2022-11-03T17:16:32.470Z,22.70
2022-11-03T17:19:00.294Z,22.70
2022-11-03T17:21:28.153Z,22.70
2022-11-03T17:23:55.711Z,22.70
2022-11-03T17:26:25.877Z,22.70
2022-11-03T17:28:54.596Z,22.60
2022-11-03T17:31:22.810Z,22.60
2022-11-03T17:33:50.421Z,22.60
2022-11-03T17:36:17.939Z,22.60
2022-11-03T17:38:46.376Z,22.60
2022-11-03T17:41:16.474Z,22.60
2022-11-03T17:43:46.526Z,22.60
2022-11-03T17:46:14.973Z,22.60
2022-11-03T17:48:42.528Z,22.60
2022-11-03T17:51:12.466Z,22.70
2022-11-03T17:53:41.040Z,22.70
2022-11-03T17:59:01.033Z,22.70
2022-11-03T18:01:28.751Z,22.70
2022-11-03T18:03:56.359Z,22.60
2022-11-03T18:06:24.537Z,22.60
2022-11-03T18:08:52.120Z,22.60
2022-11-03T18:11:46.606Z,22.50
2022-11-03T18:14:14.224Z,22.50
2022-11-03T18:16:41.882Z,22.50
2022-11-03T18:19:13.948Z,22.50
2022-11-03T18:21:41.600Z,22.40
2022-11-03T18:24:13.937Z,22.40
2022-11-03T18:26:42.644Z,22.40
2022-11-03T18:29:10.207Z,22.30
2022-11-03T18:31:50.206Z,22.30
2022-11-03T18:34:20.252Z,22.30
2022-11-03T18:36:47.751Z,22.20
2022-11-03T18:39:18.493Z,22.10
2022-11-03T18:41:46.204Z,22.10
2022-11-03T18:44:16.748Z,22.10
2022-11-03T18:46:44.357Z,22.10
2022-11-03T18:49:12.350Z,22.10
2022-11-03T18:51:40.221Z,22.10
2022-11-03T18:54:09.139Z,22.10
2022-11-03T18:56:38.271Z,22.10
2022-11-03T18:59:06.405Z,22.10
2022-11-03T19:01:34.173Z,22.10
2022-11-03T19:04:01.971Z,22.20
2022-11-03T19:06:29.499Z,22.20
2022-11-03T19:08:59.992Z,22.20
2022-11-03T19:11:27.591Z,22.20
2022-11-03T19:13:55.256Z,22.20
2022-11-03T19:16:24.576Z,22.10
2022-11-03T19:18:52.631Z,22.10
2022-11-03T19:21:22.270Z,22.00
2022-11-03T19:23:52.984Z,22.00
2022-11-03T19:26:27.412Z,22.00
2022-11-03T19:28:56.482Z,22.00
2022-11-03T19:31:44.052Z,21.90
2022-11-03T19:34:23.510Z,21.90
2022-11-03T19:36:51.708Z,21.90
2022-11-03T19:39:45.441Z,21.90
2022-11-03T19:42:28.783Z,21.90
2022-11-03T19:45:00.473Z,21.90
2022-11-03T19:47:32.764Z,21.80
2022-11-03T19:50:02.336Z,21.80
2022-11-03T19:52:31.826Z,21.70
2022-11-03T19:55:01.260Z,21.70
2022-11-03T19:57:28.827Z,21.70
2022-11-03T19:59:59.272Z,21.70
2022-11-03T20:02:28.521Z,21.70
2022-11-03T20:04:56.168Z,21.70
2022-11-03T20:07:31.069Z,21.70
2022-11-03T20:09:59.158Z,21.70
2022-11-03T20:12:26.800Z,21.70
2022-11-03T20:14:54.395Z,21.70
2022-11-03T20:17:23.406Z,21.70
2022-11-03T20:19:52.383Z,21.70
2022-11-03T20:22:28.169Z,21.80
2022-11-03T20:24:59.439Z,21.70
2022-11-03T20:27:26.977Z,21.70
2022-11-03T20:29:54.566Z,21.70
2022-11-03T20:32:22.061Z,21.80
2022-11-03T20:34:49.607Z,21.70
2022-11-03T20:37:20.688Z,21.80
2022-11-03T20:39:48.790Z,21.80
2022-11-03T20:42:21.800Z,21.80
2022-11-03T20:44:49.350Z,21.80
2022-11-03T20:47:17.752Z,21.80
2022-11-03T20:49:45.975Z,21.80
2022-11-03T20:52:14.080Z,21.90
2022-11-03T20:54:45.478Z,21.90
2022-11-03T20:57:13.763Z,21.90
2022-11-03T20:59:41.510Z,21.90
2022-11-03T21:02:13.387Z,21.90
2022-11-03T21:04:41.713Z,21.90
2022-11-03T21:07:13.671Z,22.00
2022-11-03T21:09:41.435Z,22.00
2022-11-03T21:12:13.300Z,22.00
2022-11-03T21:15:01.548Z,22.00
2022-11-03T21:17:47.662Z,22.00
2022-11-03T21:20:15.298Z,22.00
2022-11-03T21:22:52.474Z,22.00
2022-11-03T21:25:22.533Z,22.00
2022-11-03T21:27:50.021Z,22.10
2022-11-03T21:30:17.827Z,22.10
2022-11-03T21:32:45.541Z,22.00
2022-11-03T21:35:17.930Z,22.10
2022-11-03T21:37:45.487Z,22.10
2022-11-03T21:40:13.134Z,22.10
2022-11-03T21:42:59.032Z,22.10
2022-11-03T21:45:26.744Z,22.10
2022-11-03T21:48:14.275Z,22.00
2022-11-03T21:50:42.409Z,22.00
2022-11-03T21:53:10.601Z,22.00
2022-11-03T21:55:39.019Z,22.00
2022-11-03T21:58:06.649Z,22.10
2022-11-03T22:00:34.158Z,22.00
2022-11-03T22:03:03.050Z,22.00
2022-11-03T22:05:30.523Z,22.00
2022-11-03T22:07:57.982Z,22.00
2022-11-03T22:10:25.497Z,22.10
2022-11-03T22:12:52.993Z,22.10
2022-11-03T22:15:38.559Z,22.10
2022-11-03T22:18:06.883Z,22.10
2022-11-03T22:20:55.712Z,22.00
2022-11-03T22:23:41.285Z,22.00
2022-11-03T22:26:31.354Z,22.00
2022-11-03T22:29:17.909Z,21.90
2022-11-03T22:31:45.523Z,21.90
2022-11-03T22:34:31.635Z,21.90
2022-11-03T22:36:59.274Z,21.80
2022-11-03T22:39:45.012Z,21.80
2022-11-03T22:42:48.954Z,21.70
2022-11-03T22:45:35.030Z,21.70
2022-11-03T22:48:03.694Z,21.60
2022-11-03T22:50:31.775Z,21.60
2022-11-03T22:52:59.287Z,21.50
2022-11-03T22:55:26.838Z,21.50
2022-11-03T22:57:54.316Z,21.40
2022-11-03T23:00:23.571Z,21.40
2022-11-03T23:02:53.685Z,21.30
2022-11-03T23:05:21.161Z,21.30
2022-11-03T23:07:48.640Z,21.30
2022-11-03T23:10:16.153Z,21.20
2022-11-03T23:12:43.639Z,21.20
2022-11-03T23:15:29.295Z,21.20
2022-11-03T23:18:15.143Z,21.20
2022-11-03T23:21:00.939Z,21.20
2022-11-03T23:23:46.947Z,21.20
2022-11-03T23:26:14.950Z,21.20
2022-11-03T23:28:42.760Z,21.20
2022-11-03T23:31:11.461Z,21.20
2022-11-03T23:33:39.212Z,21.20
2022-11-03T23:36:07.731Z,21.30
2022-11-03T23:38:36.217Z,21.30
2022-11-03T23:41:04.842Z,21.30
2022-11-03T23:43:32.370Z,21.40
2022-11-03T23:46:18.475Z,21.40
2022-11-03T23:48:45.952Z,21.50
2022-11-03T23:51:17.886Z,21.50
2022-11-03T23:53:46.122Z,21.60
2022-11-03T23:56:33.245Z,21.70
2022-11-03T23:59:00.853Z,21.70
